createdAt,value
2022-09-26T00:01:19.823Z,14.07
2022-09-26T00:03:49.076Z,11.30
2022-09-26T00:06:18.148Z,12.80
2022-09-26T00:08:47.127Z,9.15
2022-09-26T00:11:20.236Z,12.73
2022-09-26T00:13:51.491Z,10.77
2022-09-26T00:16:18.500Z,11.98
2022-09-26T00:18:49.207Z,10.85
2022-09-26T00:21:16.792Z,13.05
2022-09-26T00:23:44.406Z,10.30
2022-09-26T00:26:12.987Z,9.68
2022-09-26T00:28:41.190Z,12.40
2022-09-26T00:31:16.058Z,12.30
2022-09-26T00:33:44.667Z,11.95
2022-09-26T00:36:11.757Z,13.50
2022-09-26T00:38:38.995Z,12.18
2022-09-26T00:41:07.147Z,12.80
2022-09-26T00:43:41.787Z,8.80
2022-09-26T00:46:21.573Z,15.20
2022-09-26T00:48:55.595Z,9.32
2022-09-26T00:51:22.941Z,8.57
2022-09-26T00:53:53.166Z,11.40
2022-09-26T00:56:34.215Z,14.23
2022-09-26T00:59:27.681Z,13.77
2022-09-26T01:01:58.240Z,15.45
2022-09-26T01:04:28.479Z,14.27
2022-09-26T01:07:01.615Z,14.35
2022-09-26T01:09:29.317Z,8.35
2022-09-26T01:12:00.005Z,8.25
2022-09-26T01:14:27.800Z,8.88
2022-09-26T01:16:56.010Z,9.00
2022-09-26T01:19:31.617Z,7.90
2022-09-26T01:24:50.392Z,15.63
2022-09-26T01:27:38.436Z,13.90
2022-09-26T01:30:12.755Z,12.90
2022-09-26T01:32:51.804Z,13.57
2022-09-26T01:35:21.957Z,16.02
2022-09-26T01:38:13.512Z,15.60
2022-09-26T01:40:50.057Z,11.23
2022-09-26T01:43:41.719Z,16.40
2022-09-26T01:46:39.577Z,16.80
2022-09-26T01:49:11.925Z,12.45
2022-09-26T01:52:05.307Z,15.40
2022-09-26T01:55:06.166Z,15.07
2022-09-26T01:57:55.515Z,12.50
2022-09-26T02:00:22.881Z,17.38
2022-09-26T02:02:51.279Z,16.90
2022-09-26T02:05:27.496Z,11.55
2022-09-26T02:08:00.526Z,16.23
2022-09-26T02:10:38.496Z,10.65
2022-09-26T02:13:11.687Z,16.05
2022-09-26T02:15:40.572Z,11.45
2022-09-26T02:18:58.307Z,15.43
2022-09-26T02:21:25.604Z,15.27
2022-09-26T02:23:54.748Z,14.70
2022-09-26T02:26:22.796Z,17.88
2022-09-26T02:28:50.349Z,15.63
2022-09-26T02:31:22.895Z,15.88
2022-09-26T02:33:51.066Z,18.90
2022-09-26T02:36:21.087Z,12.45
2022-09-26T02:38:48.256Z,13.52
2022-09-26T02:41:29.737Z,11.80
2022-09-26T02:44:24.376Z,9.13
2022-09-26T02:47:05.246Z,10.52
2022-09-26T02:50:10.728Z,13.10
2022-09-26T02:52:47.456Z,12.77
2022-09-26T02:55:20.956Z,9.48
2022-09-26T02:58:04.038Z,16.05
2022-09-26T03:00:43.913Z,14.68
2022-09-26T03:03:37.818Z,11.73
2022-09-26T03:06:08.950Z,9.25
2022-09-26T03:08:43.676Z,15.68
2022-09-26T03:11:16.938Z,16.90
2022-09-26T03:13:45.501Z,13.43
2022-09-26T03:16:14.105Z,16.48
2022-09-26T03:18:55.392Z,14.70
2022-09-26T03:21:22.659Z,17.58
2022-09-26T03:23:50.461Z,15.55
2022-09-26T03:26:25.925Z,12.30
2022-09-26T03:28:54.195Z,7.78
2022-09-26T03:31:22.373Z,11.38
2022-09-26T03:33:49.626Z,15.18
2022-09-26T03:36:16.726Z,15.45
2022-09-26T03:38:43.736Z,13.52
2022-09-26T03:41:11.403Z,13.88
2022-09-26T03:43:39.116Z,13.77
2022-09-26T03:46:07.444Z,12.70
2022-09-26T03:48:34.586Z,14.43
2022-09-26T03:51:10.564Z,14.02
2022-09-26T03:53:40.382Z,11.27
2022-09-26T03:56:09.346Z,12.93
2022-09-26T03:58:36.630Z,9.23
2022-09-26T04:01:12.806Z,13.18
2022-09-26T04:03:45.204Z,10.90
2022-09-26T04:06:20.108Z,12.60
2022-09-26T04:08:49.994Z,13.82
2022-09-26T04:11:19.701Z,13.43
2022-09-26T04:13:53.244Z,12.10
2022-09-26T04:16:23.251Z,14.20
2022-09-26T04:18:55.446Z,10.02
2022-09-26T04:21:22.557Z,9.35
2022-09-26T04:23:50.377Z,10.07
2022-09-26T04:26:23.220Z,11.73
2022-09-26T04:28:55.002Z,10.40
2022-09-26T04:31:23.672Z,11.90
2022-09-26T04:33:51.146Z,12.57
2022-09-26T04:36:18.484Z,9.27
2022-09-26T04:38:45.556Z,8.60
2022-09-26T04:41:17.872Z,13.55
2022-09-26T04:43:45.737Z,10.15
2022-09-26T04:46:21.303Z,11.35
2022-09-26T04:48:51.288Z,11.00
2022-09-26T04:51:19.670Z,8.75
2022-09-26T04:53:46.715Z,11.90
2022-09-26T04:56:15.206Z,10.68
2022-09-26T04:58:43.702Z,10.70
2022-09-26T05:01:12.980Z,14.35
2022-09-26T05:03:41.622Z,13.82
2022-09-26T05:06:10.137Z,10.52
2022-09-26T05:08:39.377Z,9.98
2022-09-26T05:11:07.066Z,7.70
2022-09-26T05:13:34.347Z,8.60
2022-09-26T05:16:03.033Z,8.02
2022-09-26T05:18:30.244Z,8.77
2022-09-26T05:20:57.865Z,10.23
2022-09-26T05:23:45.229Z,9.00
2022-09-26T05:26:41.979Z,10.63
2022-09-26T05:31:40.140Z,10.63
2022-09-26T05:34:13.087Z,10.07
2022-09-26T05:36:43.140Z,11.23
2022-09-26T05:39:30.240Z,14.23
2022-09-26T05:41:58.973Z,11.40
2022-09-26T05:44:26.699Z,13.25
2022-09-26T05:46:53.792Z,14.98
2022-09-26T05:49:20.886Z,14.40
2022-09-26T05:51:47.927Z,10.70
2022-09-26T05:54:14.965Z,12.40
2022-09-26T05:56:41.948Z,14.13
2022-09-26T05:59:09.326Z,11.02
2022-09-26T06:01:36.928Z,10.57
2022-09-26T06:04:04.023Z,13.43
2022-09-26T06:06:31.145Z,11.95
2022-09-26T06:08:58.186Z,9.40
2022-09-26T06:11:29.603Z,10.23
2022-09-26T06:14:00.861Z,10.05
2022-09-26T06:16:28.873Z,13.45
2022-09-26T06:18:56.896Z,13.73
2022-09-26T06:21:24.398Z,11.13
2022-09-26T06:23:51.457Z,11.98
2022-09-26T06:26:23.710Z,5.57
2022-09-26T06:28:58.350Z,6.13
2022-09-26T06:31:26.296Z,8.27
2022-09-26T06:33:53.526Z,7.88
2022-09-26T06:36:22.096Z,8.23
2022-09-26T06:38:49.591Z,9.38
2022-09-26T06:41:17.336Z,11.82
2022-09-26T06:43:45.461Z,10.55
2022-09-26T06:46:13.862Z,9.10
2022-09-26T06:48:41.177Z,8.60
2022-09-26T06:51:09.475Z,10.05
2022-09-26T06:53:36.581Z,11.05
2022-09-26T06:56:04.880Z,16.83
2022-09-26T06:58:32.342Z,17.63
2022-09-26T07:01:00.000Z,18.23
2022-09-26T07:03:27.151Z,18.20
2022-09-26T07:05:58.162Z,18.17
2022-09-26T07:08:50.067Z,15.55
2022-09-26T07:11:37.717Z,21.13
2022-09-26T07:14:02.198Z,19.95
2022-09-26T07:16:29.938Z,22.83
2022-09-26T07:18:57.261Z,24.70
2022-09-26T07:21:24.331Z,20.83
2022-09-26T07:23:51.377Z,24.58
2022-09-26T07:26:18.685Z,23.33
2022-09-26T07:28:47.738Z,22.73
2022-09-26T07:31:17.898Z,22.45
2022-09-26T07:33:44.956Z,22.02
2022-09-26T07:36:12.117Z,20.02
2022-09-26T07:38:39.177Z,17.23
2022-09-26T07:41:10.981Z,18.60
2022-09-26T07:46:45.959Z,12.45
2022-09-26T07:49:31.367Z,8.43
2022-09-26T07:52:00.748Z,9.23
2022-09-26T07:54:27.706Z,14.85
2022-09-26T07:56:55.288Z,13.55
2022-09-26T07:59:23.106Z,13.48
2022-09-26T08:01:52.374Z,13.52
2022-09-26T08:04:19.439Z,16.63
2022-09-26T08:06:46.999Z,16.05
2022-09-26T08:09:14.211Z,18.38
2022-09-26T08:11:42.076Z,18.58
2022-09-26T08:14:09.178Z,21.35
2022-09-26T08:16:39.664Z,21.55
2022-09-26T08:19:07.975Z,18.63
2022-09-26T08:21:35.606Z,21.88
2022-09-26T08:24:04.499Z,23.33
2022-09-26T08:26:31.589Z,23.08
2022-09-26T08:29:00.073Z,23.45
2022-09-26T08:31:28.574Z,24.95
2022-09-26T08:33:55.809Z,23.67
2022-09-26T08:36:24.059Z,23.98
2022-09-26T08:38:51.187Z,18.73
2022-09-26T08:41:25.616Z,21.60
2022-09-26T08:43:56.687Z,24.83
2022-09-26T08:47:32.381Z,27.52
2022-09-26T08:50:11.768Z,27.85
2022-09-26T08:52:54.992Z,28.38
2022-09-26T08:55:27.158Z,26.88
2022-09-26T08:58:03.697Z,26.38
2022-09-26T09:00:34.523Z,27.35
2022-09-26T09:03:25.688Z,26.98
2022-09-26T09:06:02.252Z,27.27
2022-09-26T09:08:37.962Z,25.58
2022-09-26T09:11:33.946Z,27.27
2022-09-26T09:14:06.806Z,27.42
2022-09-26T09:16:47.066Z,25.45
2022-09-26T09:19:22.856Z,23.88
2022-09-26T09:22:19.726Z,23.27
2022-09-26T09:25:17.094Z,22.38
2022-09-26T09:28:08.464Z,23.85
2022-09-26T09:30:35.826Z,20.90
2022-09-26T09:33:47.453Z,24.00
2022-09-26T09:36:26.132Z,22.88
2022-09-26T09:38:54.413Z,25.02
2022-09-26T09:41:28.526Z,24.63
2022-09-26T09:44:05.785Z,25.13
2022-09-26T09:46:37.917Z,22.67
2022-09-26T09:49:10.848Z,23.17
2022-09-26T09:51:51.473Z,22.15
2022-09-26T09:54:49.261Z,20.55
2022-09-26T09:57:37.637Z,23.17
2022-09-26T10:00:18.862Z,23.35
2022-09-26T10:03:04.341Z,21.65
2022-09-26T10:05:44.304Z,21.95
2022-09-26T10:08:25.975Z,19.65
2022-09-26T10:11:24.231Z,19.95
2022-09-26T10:13:56.815Z,20.13
2022-09-26T10:16:25.213Z,20.98
2022-09-26T10:18:59.386Z,18.80
2022-09-26T10:21:33.797Z,20.08
2022-09-26T10:24:03.997Z,17.55
2022-09-26T10:26:35.280Z,18.95
2022-09-26T10:29:08.303Z,20.52
2022-09-26T10:31:42.899Z,18.73
2022-09-26T10:34:28.667Z,19.92
2022-09-26T10:36:56.336Z,21.00
2022-09-26T10:39:48.836Z,22.42
2022-09-26T10:42:20.318Z,18.77
2022-09-26T10:44:51.110Z,19.20
2022-09-26T10:47:23.926Z,20.35
2022-09-26T10:50:09.866Z,19.60
2022-09-26T10:55:11.826Z,21.17
2022-09-26T10:57:45.800Z,20.42
2022-09-26T11:00:22.112Z,21.05
2022-09-26T11:02:52.508Z,21.15
2022-09-26T11:05:39.736Z,21.17
2022-09-26T11:08:10.296Z,21.75
2022-09-26T11:10:42.257Z,20.92
2022-09-26T11:13:20.706Z,19.55
2022-09-26T11:16:03.962Z,20.40
2022-09-26T11:18:43.232Z,18.90
2022-09-26T11:21:28.294Z,18.05
2022-09-26T11:24:05.221Z,15.75
2022-09-26T11:27:06.245Z,15.82
2022-09-26T11:29:44.627Z,19.70
2022-09-26T11:32:18.796Z,20.25
2022-09-26T11:34:46.160Z,21.20
2022-09-26T11:37:26.347Z,21.48
2022-09-26T11:40:05.972Z,20.67
2022-09-26T11:43:13.640Z,19.88
2022-09-26T11:46:05.665Z,20.23
2022-09-26T11:48:46.741Z,19.92
2022-09-26T11:51:26.242Z,19.60
2022-09-26T11:54:20.657Z,19.95
2022-09-26T11:57:11.776Z,20.75
2022-09-26T12:00:06.636Z,17.65
2022-09-26T12:02:40.055Z,18.73
2022-09-26T12:05:37.636Z,17.88
2022-09-26T12:08:19.416Z,16.48
2022-09-26T12:11:05.620Z,16.20
2022-09-26T12:13:47.327Z,14.45
2022-09-26T12:16:41.512Z,13.60
2022-09-26T12:19:32.185Z,11.80
2022-09-26T12:22:27.767Z,11.63
2022-09-26T12:25:09.371Z,13.73
2022-09-26T12:27:45.076Z,13.15
2022-09-26T12:30:18.931Z,12.02
2022-09-26T12:33:21.081Z,12.00
2022-09-26T12:36:19.020Z,11.77
2022-09-26T12:38:56.551Z,12.27
2022-09-26T12:41:58.157Z,12.30
2022-09-26T12:44:45.057Z,10.98
2022-09-26T12:47:31.228Z,9.77
2022-09-26T12:50:17.170Z,11.15
2022-09-26T12:53:24.986Z,11.18
2022-09-26T12:56:08.575Z,10.43
2022-09-26T12:58:46.653Z,9.85
2022-09-26T13:01:28.829Z,10.20
2022-09-26T13:04:04.998Z,10.13
2022-09-26T13:07:18.192Z,10.45
2022-09-26T13:09:58.043Z,9.90
2022-09-26T13:12:51.088Z,9.75
2022-09-26T13:15:21.116Z,8.32
2022-09-26T13:17:58.412Z,8.60
2022-09-26T13:20:36.076Z,7.88
2022-09-26T13:23:27.477Z,7.53
2022-09-26T13:25:57.090Z,8.52
2022-09-26T13:28:33.869Z,6.55
2022-09-26T13:31:11.110Z,6.07
2022-09-26T13:34:12.947Z,8.80
2022-09-26T13:36:42.426Z,7.97
2022-09-26T13:39:25.497Z,9.80
2022-09-26T13:42:06.793Z,9.63
2022-09-26T13:44:58.920Z,10.23
2022-09-26T13:47:45.801Z,10.48
2022-09-26T13:50:23.435Z,11.43
2022-09-26T13:53:10.411Z,10.88
2022-09-26T13:55:37.566Z,11.38
2022-09-26T13:58:19.142Z,11.23
2022-09-26T14:00:53.376Z,11.68
2022-09-26T14:03:20.571Z,10.20
2022-09-26T14:05:51.947Z,11.02
2022-09-26T14:08:43.054Z,12.15
2022-09-26T14:11:19.156Z,12.15
2022-09-26T14:13:47.875Z,11.10
2022-09-26T14:16:36.101Z,11.43
2022-09-26T14:19:13.751Z,11.85
2022-09-26T14:22:05.737Z,10.77
2022-09-26T14:24:34.131Z,10.32
2022-09-26T14:27:10.519Z,9.68
2022-09-26T14:30:07.554Z,9.77
2022-09-26T14:32:45.702Z,9.32
2022-09-26T14:35:25.236Z,9.57
2022-09-26T14:37:59.628Z,8.95
2022-09-26T14:40:38.013Z,9.20
2022-09-26T14:43:15.638Z,9.70
2022-09-26T14:45:47.869Z,10.25
2022-09-26T14:48:32.441Z,11.70
2022-09-26T14:51:04.179Z,10.95
2022-09-26T14:53:49.207Z,11.00
2022-09-26T14:56:32.578Z,10.98
2022-09-26T14:59:27.488Z,9.18
2022-09-26T15:02:15.234Z,9.50
2022-09-26T15:05:02.296Z,8.60
2022-09-26T15:07:32.217Z,8.60
2022-09-26T15:10:04.656Z,8.52
2022-09-26T15:12:52.617Z,8.23
2022-09-26T15:15:40.443Z,8.70
2022-09-26T15:18:41.622Z,8.57
2022-09-26T15:21:12.454Z,8.93
2022-09-26T15:24:22.694Z,7.32
2022-09-26T15:26:50.036Z,7.15
2022-09-26T15:29:17.477Z,6.50
2022-09-26T15:31:45.348Z,7.32
2022-09-26T15:34:19.886Z,7.40
2022-09-26T15:36:55.482Z,7.17
2022-09-26T15:39:31.687Z,6.80
2022-09-26T15:42:49.357Z,5.50
2022-09-26T15:45:27.746Z,5.50
2022-09-26T15:47:59.087Z,6.45
2022-09-26T15:50:30.399Z,4.88
2022-09-26T15:53:33.208Z,4.70
2022-09-26T15:56:22.863Z,4.30
2022-09-26T15:59:03.149Z,4.55
2022-09-26T16:01:31.842Z,4.20
2022-09-26T16:04:05.559Z,4.15
2022-09-26T16:06:42.512Z,4.35
2022-09-26T16:09:22.068Z,4.05
2022-09-26T16:11:52.676Z,3.60
2022-09-26T16:14:32.647Z,4.40
2022-09-26T16:17:11.997Z,4.57
2022-09-26T16:19:56.300Z,4.43
2022-09-26T16:22:36.458Z,4.10
2022-09-26T16:25:31.557Z,4.20
2022-09-26T16:28:00.179Z,3.83
2022-09-26T16:30:30.296Z,3.92
2022-09-26T16:33:03.356Z,4.88
2022-09-26T16:35:33.634Z,5.57
2022-09-26T16:38:32.988Z,5.25
2022-09-26T16:41:08.771Z,5.13
2022-09-26T16:43:38.027Z,5.20
2022-09-26T16:46:14.926Z,5.03
2022-09-26T16:48:51.192Z,5.20
2022-09-26T16:51:24.288Z,5.00
2022-09-26T16:54:11.973Z,4.57
2022-09-26T16:56:41.137Z,3.80
2022-09-26T16:59:29.007Z,3.80
2022-09-26T17:01:59.063Z,4.30
2022-09-26T17:04:34.677Z,4.03
2022-09-26T17:07:09.440Z,4.00
2022-09-26T17:09:36.918Z,3.70
2022-09-26T17:12:08.479Z,4.05
2022-09-26T17:14:40.644Z,3.72
2022-09-26T17:17:16.321Z,2.95
2022-09-26T17:19:46.304Z,4.03
2022-09-26T17:22:19.308Z,4.15
2022-09-26T17:24:48.151Z,3.97
2022-09-26T17:27:27.393Z,4.10
2022-09-26T17:29:59.760Z,3.67
2022-09-26T17:32:36.877Z,4.40
2022-09-26T17:35:23.187Z,4.28
2022-09-26T17:37:50.176Z,4.63
2022-09-26T17:40:24.261Z,5.38
2022-09-26T17:42:59.837Z,5.25
2022-09-26T17:45:35.346Z,5.18
2022-09-26T17:50:33.469Z,5.30
2022-09-26T17:53:02.232Z,4.90
2022-09-26T17:55:31.052Z,4.88
2022-09-26T17:57:58.535Z,5.18
2022-09-26T18:00:29.279Z,4.82
2022-09-26T18:03:01.526Z,4.82
2022-09-26T18:05:32.491Z,4.80
2022-09-26T18:08:29.678Z,4.95
2022-09-26T18:11:00.212Z,5.53
2022-09-26T18:13:31.511Z,5.30
2022-09-26T18:15:58.950Z,5.20
2022-09-26T18:18:29.317Z,6.07
2022-09-26T18:20:57.440Z,6.10
2022-09-26T18:23:27.857Z,6.40
2022-09-26T18:25:58.388Z,6.80
2022-09-26T18:28:26.037Z,6.60
2022-09-26T18:30:58.176Z,6.28
2022-09-26T18:33:27.997Z,6.50
2022-09-26T18:35:55.358Z,6.85
2022-09-26T18:38:22.439Z,6.93
2022-09-26T18:40:52.304Z,7.38
2022-09-26T18:43:24.688Z,6.38
2022-09-26T18:45:52.072Z,6.50
2022-09-26T18:48:29.472Z,7.20
2022-09-26T18:50:57.757Z,7.25
2022-09-26T18:53:34.676Z,7.07
2022-09-26T18:56:20.399Z,7.25
2022-09-26T18:58:48.522Z,7.25
2022-09-26T19:01:21.645Z,7.47
2022-09-26T19:03:48.910Z,7.30
2022-09-26T19:06:30.980Z,7.80
2022-09-26T19:09:01.880Z,9.13
2022-09-26T19:11:31.987Z,7.10
2022-09-26T19:14:02.677Z,6.00
2022-09-26T19:16:29.656Z,7.30
2022-09-26T19:18:56.739Z,7.18
2022-09-26T19:21:39.037Z,7.32
2022-09-26T19:24:22.612Z,8.00
2022-09-26T19:26:57.336Z,7.90
2022-09-26T19:29:37.119Z,7.82
2022-09-26T19:32:05.862Z,7.40
2022-09-26T19:34:33.461Z,7.43
2022-09-26T19:37:03.140Z,7.60
2022-09-26T19:39:30.386Z,7.63
2022-09-26T19:41:57.356Z,8.20
2022-09-26T19:44:24.525Z,8.65
2022-09-26T19:46:51.621Z,7.75
2022-09-26T19:49:19.950Z,8.25
2022-09-26T19:51:47.549Z,7.82
2022-09-26T19:54:17.677Z,8.13
2022-09-26T19:56:46.651Z,9.35
2022-09-26T19:59:14.550Z,9.07
2022-09-26T20:01:43.107Z,10.45
2022-09-26T20:04:19.908Z,9.88
2022-09-26T20:06:47.196Z,10.27
2022-09-26T20:09:17.095Z,9.95
2022-09-26T20:11:44.426Z,10.88
2022-09-26T20:14:23.467Z,10.70
2022-09-26T20:16:54.332Z,10.43
2022-09-26T20:19:31.457Z,13.18
2022-09-26T20:22:02.403Z,13.65
2022-09-26T20:24:31.747Z,12.68
2022-09-26T20:27:01.027Z,13.10
2022-09-26T20:29:28.201Z,12.55
2022-09-26T20:31:55.662Z,13.85
2022-09-26T20:34:22.761Z,12.88
2022-09-26T20:36:51.676Z,11.98
2022-09-26T20:39:25.827Z,12.38
2022-09-26T20:41:53.468Z,13.20
2022-09-26T20:44:27.026Z,13.65
2022-09-26T20:46:59.606Z,13.43
2022-09-26T20:49:31.996Z,13.25
2022-09-26T20:52:00.786Z,14.38
2022-09-26T20:54:30.548Z,14.88
2022-09-26T20:56:58.755Z,16.95
2022-09-26T20:59:26.901Z,20.42
2022-09-26T21:01:55.045Z,21.80
2022-09-26T21:04:32.394Z,20.65
2022-09-26T21:06:59.412Z,22.73
2022-09-26T21:09:26.492Z,22.25
2022-09-26T21:11:53.517Z,21.13
2022-09-26T21:14:20.547Z,22.05
2022-09-26T21:16:54.443Z,23.02
2022-09-26T21:19:24.208Z,22.05
2022-09-26T21:21:54.194Z,23.38
2022-09-26T21:24:30.956Z,16.42
2022-09-26T21:26:58.007Z,9.95
2022-09-26T21:29:25.057Z,7.78
2022-09-26T21:31:53.919Z,5.68
2022-09-26T21:34:23.057Z,5.95
2022-09-26T21:36:53.457Z,4.68
2022-09-26T21:39:20.527Z,4.63
2022-09-26T21:41:53.861Z,4.63
2022-09-26T21:44:27.886Z,3.70
2022-09-26T21:46:54.879Z,2.78
2022-09-26T21:49:24.972Z,3.00
2022-09-26T21:51:56.335Z,2.88
2022-09-26T21:54:28.286Z,4.32
2022-09-26T21:57:01.877Z,3.70
2022-09-26T21:59:30.076Z,2.60
2022-09-26T22:01:57.232Z,2.20
2022-09-26T22:04:24.271Z,2.17
2022-09-26T22:06:51.258Z,2.05
2022-09-26T22:09:18.272Z,1.88
2022-09-26T22:11:45.246Z,2.15
2022-09-26T22:14:12.328Z,1.92
2022-09-26T22:16:39.379Z,1.92
2022-09-26T22:19:06.452Z,2.00
2022-09-26T22:21:33.485Z,2.50
2022-09-26T22:24:00.677Z,2.10
2022-09-26T22:26:27.756Z,2.17
2022-09-26T22:28:54.757Z,1.83
2022-09-26T22:31:21.780Z,2.00
2022-09-26T22:33:49.506Z,1.90
2022-09-26T22:36:16.915Z,2.00
2022-09-26T22:38:43.867Z,1.75
2022-09-26T22:41:11.067Z,1.65
2022-09-26T22:43:38.046Z,1.60
2022-09-26T22:46:09.497Z,1.27
2022-09-26T22:48:38.557Z,1.45
2022-09-26T22:51:06.416Z,1.33
2022-09-26T22:53:35.246Z,1.30
2022-09-26T22:56:05.444Z,1.30
2022-09-26T22:58:36.766Z,1.27
2022-09-26T23:01:05.900Z,1.25
2022-09-26T23:03:35.636Z,1.30
2022-09-26T23:06:03.389Z,1.27
2022-09-26T23:08:30.346Z,1.25
2022-09-26T23:10:58.086Z,1.30
2022-09-26T23:13:26.856Z,1.30
2022-09-26T23:15:53.896Z,1.20
2022-09-26T23:18:21.106Z,1.20
2022-09-26T23:20:48.326Z,1.20
2022-09-26T23:23:15.388Z,1.17
2022-09-26T23:25:50.217Z,1.40
2022-09-26T23:28:17.867Z,1.50
2022-09-26T23:30:45.177Z,1.50
2022-09-26T23:33:12.146Z,1.40
2022-09-26T23:35:39.167Z,1.60
2022-09-26T23:38:06.164Z,1.50
2022-09-26T23:40:34.346Z,1.42
2022-09-26T23:43:02.606Z,1.50
2022-09-26T23:45:31.089Z,1.30
2022-09-26T23:47:58.016Z,1.42
2022-09-26T23:50:25.046Z,1.50
2022-09-26T23:52:52.046Z,1.63
2022-09-26T23:55:18.977Z,1.50
2022-09-26T23:57:46.026Z,1.58
